createdAt,value
2023-05-21T00:01:35.324Z,18.75
2023-05-21T00:04:02.363Z,14.25
2023-05-21T00:06:29.667Z,14.60
2023-05-21T00:08:56.715Z,14.13
2023-05-21T00:11:24.152Z,16.13
2023-05-21T00:13:50.865Z,17.65
2023-05-21T00:16:17.822Z,13.90
2023-05-21T00:18:45.306Z,14.40
2023-05-21T00:21:12.409Z,20.08
2023-05-21T00:23:41.413Z,16.30
2023-05-21T00:26:08.246Z,15.80
2023-05-21T00:28:35.096Z,18.00
2023-05-21T00:31:02.211Z,15.00
2023-05-21T00:33:29.394Z,14.38
2023-05-21T00:35:57.326Z,15.25
2023-05-21T00:38:24.263Z,14.73
2023-05-21T00:40:51.213Z,15.93
2023-05-21T00:43:18.044Z,14.55
2023-05-21T00:45:46.719Z,14.45
2023-05-21T00:48:14.935Z,16.20
2023-05-21T00:50:42.208Z,12.68
2023-05-21T00:53:11.875Z,15.93
2023-05-21T00:55:39.038Z,15.35
2023-05-21T00:58:06.675Z,13.48
2023-05-21T01:00:34.517Z,13.38
2023-05-21T01:03:01.901Z,14.60
2023-05-21T01:05:29.381Z,14.60
2023-05-21T01:07:58.151Z,14.23
2023-05-21T01:10:26.366Z,12.85
2023-05-21T01:12:55.090Z,14.70
2023-05-21T01:15:22.156Z,15.35
2023-05-21T01:17:49.686Z,14.32
2023-05-21T01:20:19.139Z,14.05
2023-05-21T01:22:56.595Z,15.55
2023-05-21T01:25:24.174Z,17.17
2023-05-21T01:27:52.022Z,14.40
2023-05-21T01:30:20.662Z,16.75
2023-05-21T01:33:00.812Z,13.93
2023-05-21T01:35:35.178Z,15.07
2023-05-21T01:38:24.524Z,15.68
2023-05-21T01:41:08.138Z,18.80
2023-05-21T01:43:38.840Z,14.35
2023-05-21T02:03:47.139Z,13.27
2023-05-21T02:06:14.261Z,16.92
2023-05-21T02:08:41.018Z,12.55
2023-05-21T02:11:07.905Z,13.20
2023-05-21T02:13:34.672Z,13.55
2023-05-21T02:16:01.575Z,15.60
2023-05-21T02:18:29.286Z,19.27
2023-05-21T02:20:56.343Z,13.35
2023-05-21T02:23:23.560Z,16.27
2023-05-21T02:25:50.602Z,15.85
2023-05-21T02:28:17.617Z,14.98
2023-05-21T02:30:44.684Z,14.13
2023-05-21T02:33:14.441Z,13.73
2023-05-21T02:35:41.752Z,14.10
2023-05-21T02:38:09.320Z,12.88
2023-05-21T02:40:36.303Z,14.30
2023-05-21T02:43:03.169Z,18.50
2023-05-21T02:45:31.049Z,13.23
2023-05-21T02:47:59.006Z,13.23
2023-05-21T02:50:26.139Z,13.18
2023-05-21T02:52:53.048Z,15.27
2023-05-21T02:55:20.008Z,16.58
2023-05-21T02:57:46.852Z,15.77
2023-05-21T03:00:14.202Z,15.27
2023-05-21T03:02:41.283Z,16.15
2023-05-21T03:05:08.410Z,19.40
2023-05-21T03:07:35.175Z,14.07
2023-05-21T03:10:02.110Z,13.88
2023-05-21T03:12:28.902Z,14.95
2023-05-21T03:14:56.393Z,16.45
2023-05-21T03:17:23.320Z,13.38
2023-05-21T03:19:50.250Z,14.38
2023-05-21T03:22:17.136Z,12.55
2023-05-21T03:24:45.469Z,14.50
2023-05-21T03:27:12.293Z,17.10
2023-05-21T03:29:40.078Z,14.13
2023-05-21T03:32:07.320Z,14.40
2023-05-21T03:34:34.546Z,14.70
2023-05-21T03:37:01.484Z,16.83
2023-05-21T03:39:28.570Z,14.38
2023-05-21T03:41:55.390Z,13.77
2023-05-21T03:44:22.291Z,14.80
2023-05-21T03:46:49.114Z,12.95
2023-05-21T03:49:15.934Z,13.57
2023-05-21T03:51:42.759Z,14.18
2023-05-21T03:54:09.611Z,13.40
2023-05-21T03:56:36.473Z,13.05
2023-05-21T03:59:03.379Z,14.40
2023-05-21T04:01:30.646Z,14.32
2023-05-21T04:03:57.827Z,13.60
2023-05-21T04:06:24.878Z,14.15
2023-05-21T04:08:52.247Z,16.27
2023-05-21T04:11:19.064Z,14.60
2023-05-21T04:13:46.221Z,14.82
2023-05-21T04:16:14.732Z,14.38
2023-05-21T04:18:44.150Z,14.13
2023-05-21T04:21:12.673Z,13.77
2023-05-21T04:23:39.720Z,15.77
2023-05-21T04:26:07.751Z,15.15
2023-05-21T04:28:35.413Z,16.63
2023-05-21T04:31:02.770Z,15.10
2023-05-21T04:33:30.453Z,14.02
2023-05-21T04:35:57.790Z,15.88
2023-05-21T04:38:24.789Z,16.02
2023-05-21T04:40:52.073Z,14.10
2023-05-21T04:43:26.298Z,14.00
2023-05-21T04:45:56.856Z,14.77
2023-05-21T04:48:28.773Z,14.32
2023-05-21T04:50:56.855Z,13.68
2023-05-21T04:53:26.053Z,13.25
2023-05-21T04:55:53.048Z,12.00
2023-05-21T04:58:19.882Z,12.55
2023-05-21T05:00:47.129Z,15.68
2023-05-21T05:03:14.622Z,14.75
2023-05-21T05:05:42.072Z,12.00
2023-05-21T05:08:09.090Z,13.77
2023-05-21T05:10:36.361Z,11.35
2023-05-21T05:13:03.609Z,14.10
2023-05-21T05:15:30.477Z,12.85
2023-05-21T05:17:57.457Z,13.23
2023-05-21T05:20:24.265Z,13.48
2023-05-21T05:22:51.325Z,12.52
2023-05-21T05:25:18.469Z,14.40
2023-05-21T05:27:45.274Z,13.27
2023-05-21T05:30:12.596Z,16.00
2023-05-21T05:32:39.438Z,12.70
2023-05-21T05:35:07.182Z,12.20
2023-05-21T05:37:34.104Z,13.32
2023-05-21T05:40:00.950Z,11.65
2023-05-21T05:42:27.768Z,14.45
2023-05-21T05:44:54.541Z,11.55
2023-05-21T05:47:22.007Z,12.68
2023-05-21T05:49:48.881Z,11.38
2023-05-21T05:52:16.141Z,13.07
2023-05-21T05:54:46.169Z,13.88
2023-05-21T05:57:12.932Z,11.13
2023-05-21T05:59:39.778Z,11.05
2023-05-21T06:02:07.252Z,10.75
2023-05-21T06:04:34.191Z,12.35
2023-05-21T06:07:01.026Z,11.10
2023-05-21T06:09:27.937Z,11.13
2023-05-21T06:11:54.903Z,10.52
2023-05-21T06:14:21.758Z,15.23
2023-05-21T06:16:48.627Z,15.25
2023-05-21T06:19:15.501Z,12.73
2023-05-21T06:21:42.347Z,11.60
2023-05-21T06:24:09.106Z,12.48
2023-05-21T06:26:35.898Z,11.02
2023-05-21T06:29:03.877Z,12.38
2023-05-21T06:31:33.187Z,13.90
2023-05-21T06:34:00.978Z,10.95
2023-05-21T06:36:29.926Z,11.77
2023-05-21T06:38:57.245Z,12.10
2023-05-21T06:41:24.193Z,9.95
2023-05-21T06:43:51.467Z,10.25
2023-05-21T06:46:18.688Z,9.65
2023-05-21T06:48:46.457Z,10.30
2023-05-21T06:51:13.355Z,12.50
2023-05-21T06:53:40.292Z,11.10
2023-05-21T06:56:07.560Z,10.02
2023-05-21T06:58:35.798Z,10.70
2023-05-21T07:01:02.910Z,11.52
2023-05-21T07:03:29.839Z,9.68
2023-05-21T07:05:58.121Z,9.90
2023-05-21T07:08:25.019Z,10.25
2023-05-21T07:10:51.861Z,9.50
2023-05-21T07:13:18.838Z,9.75
2023-05-21T07:15:45.733Z,9.73
2023-05-21T07:18:13.251Z,9.88
2023-05-21T07:20:40.199Z,9.32
2023-05-21T07:23:06.963Z,9.75
2023-05-21T07:25:33.692Z,9.52
2023-05-21T07:44:27.753Z,9.15
2023-05-21T07:46:54.687Z,12.88
2023-05-21T07:49:21.439Z,10.20
2023-05-21T07:51:48.503Z,9.75
2023-05-21T07:54:15.427Z,9.75
2023-05-21T07:56:42.196Z,9.30
2023-05-21T07:59:09.035Z,9.32
2023-05-21T08:01:37.565Z,9.52
2023-05-21T08:04:06.688Z,11.57
2023-05-21T08:06:34.105Z,8.68
2023-05-21T08:09:04.073Z,9.75
2023-05-21T08:11:31.051Z,10.65
2023-05-21T08:13:58.050Z,8.88
2023-05-21T08:16:24.970Z,8.85
2023-05-21T08:18:52.062Z,9.13
2023-05-21T08:21:19.041Z,8.82
2023-05-21T08:23:46.041Z,10.68
2023-05-21T08:26:12.916Z,9.25
2023-05-21T08:28:39.767Z,8.52
2023-05-21T08:31:06.649Z,8.38
2023-05-21T08:33:39.060Z,8.77
2023-05-21T08:36:07.144Z,9.05
2023-05-21T08:38:34.854Z,8.85
2023-05-21T08:41:01.580Z,9.20
2023-05-21T08:43:30.117Z,9.40
2023-05-21T08:46:00.218Z,9.20
2023-05-21T08:48:28.075Z,9.00
2023-05-21T08:50:55.282Z,9.85
2023-05-21T08:53:28.137Z,8.75
2023-05-21T08:55:57.472Z,9.18
2023-05-21T08:58:24.870Z,9.45
2023-05-21T09:00:51.834Z,9.40
2023-05-21T09:03:19.147Z,9.40
2023-05-21T09:05:46.784Z,9.00
2023-05-21T09:08:27.331Z,9.20
2023-05-21T09:10:54.190Z,8.82
2023-05-21T09:13:21.195Z,9.82
2023-05-21T09:15:48.794Z,9.57
2023-05-21T09:18:15.635Z,9.75
2023-05-21T09:20:44.093Z,8.30
2023-05-21T09:23:16.441Z,10.88
2023-05-21T09:25:48.435Z,9.30
2023-05-21T09:28:16.932Z,7.90
2023-05-21T09:30:54.017Z,8.00
2023-05-21T09:33:31.665Z,8.18
2023-05-21T09:35:58.593Z,9.57
2023-05-21T09:38:29.468Z,8.40
2023-05-21T09:40:57.054Z,7.82
2023-05-21T09:43:23.882Z,8.20
2023-05-21T09:45:55.419Z,9.10
2023-05-21T09:48:40.938Z,8.15
2023-05-21T09:51:16.836Z,7.85
2023-05-21T09:53:58.460Z,7.78
2023-05-21T09:56:31.741Z,7.57
2023-05-21T09:59:04.324Z,7.55
2023-05-21T10:01:33.476Z,7.03
2023-05-21T10:04:02.451Z,7.10
2023-05-21T10:06:31.374Z,7.40
2023-05-21T10:09:05.585Z,7.25
2023-05-21T10:11:37.627Z,7.63
2023-05-21T10:14:09.969Z,9.07
2023-05-21T10:16:37.548Z,7.40
2023-05-21T10:19:06.023Z,9.57
2023-05-21T10:21:35.665Z,10.40
2023-05-21T10:24:03.270Z,6.93
2023-05-21T10:26:31.227Z,7.63
2023-05-21T10:29:01.155Z,7.05
2023-05-21T10:31:28.568Z,9.80
2023-05-21T10:33:56.157Z,7.68
2023-05-21T10:36:25.836Z,6.95
2023-05-21T10:38:53.853Z,7.13
2023-05-21T10:41:22.559Z,7.00
2023-05-21T10:44:19.814Z,7.90
2023-05-21T10:47:04.473Z,6.93
2023-05-21T10:50:31.807Z,6.63
2023-05-21T10:52:58.611Z,8.63
2023-05-21T10:55:28.039Z,7.50
2023-05-21T10:58:10.943Z,7.40
2023-05-21T11:00:38.568Z,7.13
2023-05-21T11:03:06.457Z,6.88
2023-05-21T11:05:52.649Z,7.10
2023-05-21T11:08:23.386Z,7.80
2023-05-21T11:11:00.711Z,8.10
2023-05-21T11:13:31.358Z,8.00
2023-05-21T11:16:05.976Z,9.00
2023-05-21T11:18:35.558Z,8.20
2023-05-21T11:21:16.987Z,7.38
2023-05-21T11:24:01.315Z,8.15
2023-05-21T11:26:52.739Z,9.52
2023-05-21T11:29:20.148Z,8.10
2023-05-21T11:31:48.686Z,8.23
2023-05-21T11:34:29.558Z,8.15
2023-05-21T11:37:18.286Z,8.13
2023-05-21T11:39:45.528Z,8.93
2023-05-21T11:42:12.769Z,8.15
2023-05-21T11:44:44.957Z,8.07
2023-05-21T11:47:19.018Z,8.35
2023-05-21T11:49:46.568Z,7.80
2023-05-21T11:52:14.301Z,8.27
2023-05-21T11:54:46.269Z,8.20
2023-05-21T11:57:18.515Z,7.78
2023-05-21T11:59:46.249Z,8.45
2023-05-21T12:02:17.713Z,8.93
2023-05-21T12:04:49.431Z,8.10
2023-05-21T12:07:18.939Z,7.97
2023-05-21T12:09:50.599Z,7.93
2023-05-21T12:12:22.583Z,7.55
2023-05-21T12:14:50.980Z,7.53
2023-05-21T12:17:22.597Z,7.68
2023-05-21T12:19:51.975Z,7.32
2023-05-21T12:22:19.036Z,8.00
2023-05-21T12:24:46.600Z,10.32
2023-05-21T12:27:16.739Z,10.20
2023-05-21T12:29:44.961Z,7.97
2023-05-21T12:32:14.068Z,7.65
2023-05-21T12:34:46.205Z,9.10
2023-05-21T12:37:26.155Z,7.60
2023-05-21T12:39:59.597Z,7.38
2023-05-21T12:42:29.985Z,8.95
2023-05-21T12:44:57.739Z,8.05
2023-05-21T12:47:29.062Z,7.40
2023-05-21T12:50:00.408Z,7.72
2023-05-21T12:52:27.800Z,7.53
2023-05-21T12:54:56.740Z,6.85
2023-05-21T12:57:25.879Z,7.55
2023-05-21T13:00:00.424Z,7.50
2023-05-21T13:02:32.917Z,7.40
2023-05-21T13:05:01.860Z,6.82
2023-05-21T13:07:30.964Z,6.68
2023-05-21T13:09:58.607Z,10.25
2023-05-21T13:12:29.283Z,7.28
2023-05-21T13:14:58.341Z,7.47
2023-05-21T13:17:27.367Z,7.93
2023-05-21T13:20:09.523Z,8.07
2023-05-21T13:22:39.257Z,7.05
2023-05-21T13:25:07.383Z,6.72
2023-05-21T13:27:34.512Z,8.25
2023-05-21T13:30:01.948Z,6.95
2023-05-21T13:32:28.887Z,6.53
2023-05-21T13:34:55.785Z,6.75
2023-05-21T13:37:22.743Z,6.38
2023-05-21T13:39:49.800Z,6.97
2023-05-21T13:42:16.845Z,6.75
2023-05-21T13:44:43.738Z,7.75
2023-05-21T13:47:12.049Z,9.27
2023-05-21T13:49:39.132Z,6.90
2023-05-21T13:52:07.415Z,6.55
2023-05-21T13:54:34.444Z,6.70
2023-05-21T13:57:01.295Z,8.65
2023-05-21T13:59:28.708Z,7.03
2023-05-21T14:01:58.079Z,6.50
2023-05-21T14:04:24.986Z,6.30
2023-05-21T14:06:52.333Z,7.07
2023-05-21T14:09:19.439Z,6.03
2023-05-21T14:11:46.473Z,6.88
2023-05-21T14:14:18.756Z,6.50
2023-05-21T14:16:47.291Z,6.28
2023-05-21T14:19:14.648Z,6.90
2023-05-21T14:21:42.357Z,7.32
2023-05-21T14:24:09.469Z,6.07
2023-05-21T14:26:39.972Z,7.35
2023-05-21T14:29:07.282Z,6.50
2023-05-21T14:31:34.290Z,6.68
2023-05-21T14:34:03.036Z,7.65
2023-05-21T14:36:31.063Z,6.32
2023-05-21T14:38:57.859Z,6.57
2023-05-21T14:41:26.676Z,7.28
2023-05-21T14:43:53.934Z,6.97
2023-05-21T14:46:21.296Z,6.80
2023-05-21T14:48:48.132Z,7.20
2023-05-21T14:51:15.389Z,6.47
2023-05-21T14:53:42.331Z,6.18
2023-05-21T14:56:09.269Z,6.32
2023-05-21T14:58:36.060Z,7.88
2023-05-21T15:01:04.411Z,6.78
2023-05-21T15:03:31.481Z,6.55
2023-05-21T15:05:58.672Z,7.00
2023-05-21T15:08:25.864Z,6.22
2023-05-21T15:10:52.964Z,10.30
2023-05-21T15:13:21.383Z,7.85
2023-05-21T15:15:49.207Z,8.80
2023-05-21T15:18:16.164Z,7.28
2023-05-21T15:20:43.088Z,6.30
2023-05-21T15:23:16.984Z,6.65
2023-05-21T15:25:45.257Z,6.65
2023-05-21T15:28:12.796Z,8.07
2023-05-21T15:30:40.051Z,6.35
2023-05-21T15:33:06.784Z,6.45
2023-05-21T15:35:34.975Z,5.90
2023-05-21T15:38:02.237Z,6.55
2023-05-21T15:40:28.960Z,6.28
2023-05-21T15:42:55.813Z,6.20
2023-05-21T15:45:22.651Z,6.70
2023-05-21T15:47:49.441Z,6.50
2023-05-21T15:50:16.485Z,9.07
2023-05-21T15:52:43.345Z,6.80
2023-05-21T15:55:10.427Z,6.50
2023-05-21T15:57:37.217Z,6.90
2023-05-21T16:00:05.009Z,7.43
2023-05-21T16:02:32.016Z,9.55
2023-05-21T16:04:59.156Z,7.18
2023-05-21T16:07:26.143Z,6.55
2023-05-21T16:09:53.046Z,6.55
2023-05-21T16:12:19.967Z,6.43
2023-05-21T16:14:50.023Z,7.88
2023-05-21T16:17:17.653Z,7.40
2023-05-21T16:19:44.480Z,7.03
2023-05-21T16:22:11.463Z,6.75
2023-05-21T16:24:38.478Z,6.30
2023-05-21T16:27:05.633Z,7.88
2023-05-21T16:29:36.128Z,7.40
2023-05-21T16:32:04.142Z,6.85
2023-05-21T16:34:31.439Z,10.45
2023-05-21T16:36:58.705Z,7.22
2023-05-21T16:39:25.538Z,7.00
2023-05-21T16:41:53.959Z,7.30
2023-05-21T16:44:20.830Z,8.27
2023-05-21T16:46:47.891Z,8.77
2023-05-21T16:49:14.717Z,6.97
2023-05-21T16:51:41.579Z,7.60
2023-05-21T16:54:08.433Z,8.13
2023-05-21T16:56:35.411Z,7.43
2023-05-21T16:59:02.293Z,8.70
2023-05-21T17:01:29.056Z,6.75
2023-05-21T17:03:56.658Z,7.53
2023-05-21T17:06:24.600Z,12.73
2023-05-21T17:08:51.501Z,7.40
2023-05-21T17:11:18.479Z,7.53
2023-05-21T17:13:48.130Z,6.68
2023-05-21T17:16:15.022Z,7.22
2023-05-21T17:18:42.447Z,7.60
2023-05-21T17:21:09.767Z,7.72
2023-05-21T17:23:36.702Z,6.72
2023-05-21T17:26:03.530Z,8.70
2023-05-21T17:28:30.514Z,6.50
2023-05-21T17:30:57.867Z,9.73
2023-05-21T17:33:25.221Z,6.78
2023-05-21T17:35:52.045Z,6.30
2023-05-21T17:38:18.919Z,7.00
2023-05-21T17:40:45.906Z,6.60
2023-05-21T17:43:12.736Z,7.32
2023-05-21T17:45:40.025Z,6.55
2023-05-21T17:48:07.053Z,8.23
2023-05-21T17:50:34.290Z,6.95
2023-05-21T17:53:01.156Z,6.82
2023-05-21T17:55:28.026Z,8.40
2023-05-21T17:57:54.971Z,7.05
2023-05-21T18:00:21.908Z,8.07
2023-05-21T18:02:48.931Z,8.43
2023-05-21T18:05:15.803Z,6.93
2023-05-21T18:07:42.561Z,7.63
2023-05-21T18:10:09.662Z,7.13
2023-05-21T18:12:36.505Z,8.27
2023-05-21T18:15:03.524Z,7.45
2023-05-21T18:17:30.883Z,9.30
2023-05-21T18:19:57.988Z,7.20
2023-05-21T18:22:24.837Z,6.43
2023-05-21T18:24:51.887Z,8.75
2023-05-21T18:27:18.785Z,7.03
2023-05-21T18:46:11.114Z,6.72
2023-05-21T18:48:48.681Z,8.65
2023-05-21T18:51:15.982Z,7.50
2023-05-21T18:53:42.759Z,7.60
2023-05-21T18:56:10.261Z,11.45
2023-05-21T19:01:06.105Z,7.82
2023-05-21T19:03:34.180Z,8.43
2023-05-21T19:06:01.484Z,8.30
2023-05-21T19:08:28.628Z,7.18
2023-05-21T19:10:55.902Z,7.80
2023-05-21T19:13:24.139Z,8.43
2023-05-21T19:15:51.628Z,9.32
2023-05-21T19:18:18.956Z,11.57
2023-05-21T19:20:46.497Z,10.40
2023-05-21T19:23:14.044Z,11.52
2023-05-21T19:25:42.032Z,10.35
2023-05-21T19:28:09.501Z,11.98
2023-05-21T19:30:37.105Z,10.68
2023-05-21T19:33:04.809Z,8.88
2023-05-21T19:35:32.285Z,9.15
2023-05-21T19:38:05.114Z,11.00
2023-05-21T19:40:33.424Z,10.80
2023-05-21T19:43:00.789Z,12.82
2023-05-21T19:45:28.135Z,11.38
2023-05-21T19:47:56.541Z,13.65
2023-05-21T19:50:24.668Z,11.23
2023-05-21T19:52:52.525Z,8.98
2023-05-21T19:55:20.596Z,11.55
2023-05-21T19:57:48.171Z,9.45
2023-05-21T20:00:15.944Z,10.25
2023-05-21T20:02:44.637Z,12.15
2023-05-21T20:05:12.198Z,13.50
2023-05-21T20:07:40.073Z,10.90
2023-05-21T20:10:08.985Z,12.45
2023-05-21T20:12:37.039Z,9.40
2023-05-21T20:15:08.904Z,11.43
2023-05-21T20:17:36.434Z,12.82
2023-05-21T20:20:07.468Z,16.20
2023-05-21T20:22:34.842Z,21.83
2023-05-21T20:25:04.390Z,24.00
2023-05-21T20:27:32.222Z,15.13
2023-05-21T20:29:59.221Z,22.70
2023-05-21T20:48:19.443Z,14.20
2023-05-21T20:50:49.073Z,19.63
2023-05-21T20:53:16.053Z,26.40
2023-05-21T20:55:44.483Z,15.10
2023-05-21T20:58:11.728Z,11.93
2023-05-21T21:00:41.772Z,13.05
2023-05-21T21:03:11.402Z,12.35
2023-05-21T21:05:38.943Z,13.23
2023-05-21T21:08:08.446Z,17.33
2023-05-21T21:10:55.961Z,12.82
2023-05-21T21:13:22.816Z,11.88
2023-05-21T21:15:50.235Z,11.48
2023-05-21T21:18:17.581Z,10.88
2023-05-21T21:20:49.363Z,9.90
2023-05-21T21:23:16.614Z,9.60
2023-05-21T21:25:43.470Z,14.63
2023-05-21T21:28:10.751Z,10.40
2023-05-21T21:30:42.953Z,12.02
2023-05-21T21:33:10.221Z,10.15
2023-05-21T21:35:38.702Z,10.38
2023-05-21T21:38:05.525Z,10.00
2023-05-21T21:40:32.542Z,11.45
2023-05-21T21:42:59.550Z,13.80
2023-05-21T21:45:26.353Z,10.93
2023-05-21T22:08:28.871Z,10.95
2023-05-21T22:10:56.176Z,9.93
2023-05-21T22:13:24.743Z,12.70
2023-05-21T22:15:51.776Z,13.75
2023-05-21T22:18:28.298Z,10.70
2023-05-21T22:21:03.915Z,13.48
2023-05-21T22:23:30.840Z,13.52
2023-05-21T22:25:57.740Z,10.90
2023-05-21T22:28:24.813Z,10.88
2023-05-21T22:30:51.686Z,10.63
2023-05-21T22:33:18.593Z,10.48
2023-05-21T22:35:45.566Z,11.05
2023-05-21T22:38:12.481Z,11.07
2023-05-21T22:40:39.488Z,10.57
2023-05-21T22:43:06.559Z,13.13
2023-05-21T22:45:33.383Z,10.85
2023-05-21T22:48:06.563Z,12.98
2023-05-21T22:50:34.159Z,10.77
2023-05-21T22:53:01.077Z,14.02
2023-05-21T22:55:27.921Z,10.73
2023-05-21T22:57:54.767Z,10.60
2023-05-21T23:00:21.774Z,12.13
2023-05-21T23:02:52.223Z,11.00
2023-05-21T23:05:20.838Z,10.50
2023-05-21T23:07:47.616Z,13.82
2023-05-21T23:10:14.512Z,10.82
2023-05-21T23:12:41.414Z,12.40
2023-05-21T23:15:10.037Z,9.80
2023-05-21T23:17:37.603Z,10.88
2023-05-21T23:20:06.130Z,9.82
2023-05-21T23:22:33.027Z,13.55
2023-05-21T23:24:59.929Z,10.40
2023-05-21T23:27:26.828Z,10.27
2023-05-21T23:29:53.679Z,9.93
2023-05-21T23:32:20.542Z,10.82
2023-05-21T23:34:48.422Z,10.05
2023-05-21T23:37:15.430Z,11.18
2023-05-21T23:39:44.272Z,9.68
2023-05-21T23:42:11.195Z,12.30
2023-05-21T23:44:37.965Z,12.63
2023-05-21T23:47:05.097Z,12.45
2023-05-21T23:49:31.938Z,13.30
2023-05-21T23:51:59.160Z,12.63
2023-05-21T23:54:26.036Z,12.48
2023-05-21T23:56:52.999Z,12.55
2023-05-21T23:59:19.861Z,11.57
